Buffalo, SD

2:16 AM MST on February 11, 2016 (GMT -0700)
Hettinger Municipal | | Change Station
CLOSE
Current Station
Airport
Location: Hettinger,
Elevation: 2703 ft
Nearby Weather Stations

Elev 2703 ft 46.01 °N, 102.66 °W | Updated 23 minutes ago

Overcast
Overcast
28 °F
Feels Like 22 °F
N
6
Wind Variable Wind from South

Today
High -- | Low -- °F
--% Chance of Precip.
Yesterday
High -- | Low -- °F
Precip. -- in
Pressure 30.14 in
Visibility 9.0 miles
Clouds Overcast 1200 ft
Windchill 22 °F
Dew Point 24 °F
Humidity 85%
Rainfall 0.00 in
Snow Depth Not available.
7:02 AM 5:15 PM
Waxing Crescent, 10% visible
METAR KHEI 110853Z AUTO 17005KT 9SM OVC012 M02/M04 A3008 RMK AO2 SLP205 T10221044 58017
Pressure 30.14 in
Visibility 9.0 miles
Clouds Overcast 1200 ft
Windchill 22 °F
Dew Point 24 °F
Humidity 85%
Rainfall 0.00 in
Snow Depth Not available.
7:02 AM 5:15 PM
Waxing Crescent, 10% visible
METAR KHEI 110853Z AUTO 17005KT 9SM OVC012 M02/M04 A3008 RMK AO2 SLP205 T10221044 58017

10-Day Weather Forecast

Almanac

Astronomy

Feb. 11, 2016 Rise Set
Actual Time
Civil Twilight
Nautical Twilight
Astronomical Twilight
Moon
Length of Visible Light
Length of Day
Tomorrow will be .
, % of the Moon is Illuminated

Today's Extremes

State Highs State Lows

Community

WunderPhotos

Upload Photos

1,892,030 photos uploaded!

WunderBlog® & News

Nearby

Air Quality

  Air Quality AQ Index Pollutant
Not available.

Snow Depth

Station Depth Elevation

Earthquake Activity

City Distance Mag. Time & Date
Minimum magnitude displayed is 2.5.

Coastal Water Temperatures

Place Temperature

Stations

Nearby Weather Stations

Station Location Temp. Windchill Dew Point Humidity Wind Precip. Elev Updated Type
                   

Watches & Warnings

There are currently no watches in effect.